Texas General Land Office
 Texas General Land Office
 George P. Bush, Commissioner

 Oil Spill Prevention
 & Response

Texas Automated Buoy System
Real Time Ocean Observations
Supporting Oil Spill Prevention and
Response since 1995
Geochemical and Environmental Research Group

TABS Buoy V -- Texas Automated Buoy System

TABS Buoy V Conditions at 12/17/2017 13:00 UTC (12/17/2017 07:00 CST)
27° 53.7960'N   93° 35.8380'W
AA3900 DCS - sensor depth 2m
Anemometer height: 4m
Water Depth: 295 feet (89 meters)
Speed: 0.00 cm/s (0.00 kts) Direction: 90 °T (E) Water Temp: 0°C (32 °F)
System Voltage: 12.0 V Signal Strength: 0.0 dB Ping Count: 0
Wind: 6.0 m/s (11.8 kts)
          From 314°T (NW)
Air Temp: 19 °C (67 °F)
Relative Humidity:  109 %
Pressure: 1017.9 mb (30.06 inHg)
Waves: 1.7 m (5.7 ft) @ 6 sec
  


IMPORTANT: Notice to Mariners


Today's Velocity Data (download)

   Date   |  Time  |   East |   North|   Speed|  Dir | WaterT |
          |  (UTC) |  (cm/s)|  (cm/s)|  (cm/s)| (°T) |  (°C)  |
==========+========+========+========+========+======+========+
12/17/2017 00:00:00     0.00     0.00     0.00   90.0    0.0
12/17/2017 00:30:00     0.00     0.00     0.00   90.0    0.0
12/17/2017 01:00:00     0.00     0.00     0.00   90.0    0.0
12/17/2017 01:30:00     0.00     0.00     0.00   90.0    0.0
12/17/2017 02:00:00     0.00     0.00     0.00   90.0    0.0
12/17/2017 02:30:00     0.00     0.00     0.00   90.0    0.0
12/17/2017 03:00:00     0.00     0.00     0.00   90.0    0.0
12/17/2017 03:30:00     0.00     0.00     0.00   90.0    0.0
12/17/2017 04:00:00     0.00     0.00     0.00   90.0    0.0
12/17/2017 04:30:00     0.00     0.00     0.00   90.0    0.0
12/17/2017 05:00:00     0.00     0.00     0.00   90.0    0.0
12/17/2017 05:30:00     0.00     0.00     0.00   90.0    0.0
12/17/2017 06:00:00     0.00     0.00     0.00   90.0    0.0
12/17/2017 06:30:00     0.00     0.00     0.00   90.0    0.0
12/17/2017 07:00:00     0.00     0.00     0.00   90.0    0.0
12/17/2017 07:30:00     0.00     0.00     0.00   90.0    0.0
12/17/2017 08:00:00     0.00     0.00     0.00   90.0    0.0
12/17/2017 08:30:00     0.00     0.00     0.00   90.0    0.0
12/17/2017 09:00:00     0.00     0.00     0.00   90.0    0.0
12/17/2017 09:30:00     0.00     0.00     0.00   90.0    0.0
12/17/2017 10:00:00     0.00     0.00     0.00   90.0    0.0
12/17/2017 10:30:00     0.00     0.00     0.00   90.0    0.0
12/17/2017 11:00:00     0.00     0.00     0.00   90.0    0.0
12/17/2017 11:30:00     0.00     0.00     0.00   90.0    0.0
12/17/2017 12:00:00     0.00     0.00     0.00   90.0    0.0
12/17/2017 12:30:00     0.00     0.00     0.00   90.0    0.0
12/17/2017 13:00:00     0.00     0.00     0.00   90.0    0.0



       
 

Today's Wave Data    


   Date   |  Time  |Sig Wave Ht| Peak Period|
          |  (UTC) | (meters)  |    (sec)   |
==========+========+===========+============+
12/17/2017 00:20:58      1.9        6
12/17/2017 01:20:58      1.7        6
12/17/2017 02:20:58      1.8        6
12/17/2017 03:20:58      1.7        7
12/17/2017 04:20:58      1.8        7
12/17/2017 05:20:58      2.1        7
12/17/2017 06:20:58      2.1        7
12/17/2017 07:20:58      2.2        7
12/17/2017 08:20:58      2.3        7
12/17/2017 09:20:58      2.2        7
12/17/2017 10:20:58      2.2        7
12/17/2017 11:20:58      2.0        7
12/17/2017 12:20:59      2.0        7
12/17/2017 13:20:58      1.7        6
       
 

Today's Temperature - Salinity Data     (Download)


   Date   |  Time  |   Temp |   Cond |Salinity| Density|SoundVel|
          |  (UTC) |   (°C) | (ms/cm)|        | kg/m^3 |  (m/s) |
==========+========+========+========+========+========+========+
12/17/2017 00:00:00    23.09    52.39    36.01     0.00     0.00
12/17/2017 00:30:00    23.10    52.38    35.99     0.00     0.00
12/17/2017 01:00:00    23.11    52.39    36.00     0.00     0.00
12/17/2017 01:30:00    23.11    52.40    36.00     0.00     0.00
12/17/2017 02:00:00    23.11    52.39    36.00     0.00     0.00
12/17/2017 02:30:00    23.11    52.40    36.00     0.00     0.00
12/17/2017 03:00:00    23.11    52.40    36.01     0.00     0.00
12/17/2017 03:30:00    23.12    52.42    36.01     0.00     0.00
12/17/2017 04:00:00    23.16    52.45    36.01     0.00     0.00
12/17/2017 04:30:00    23.18    52.48    36.01     0.00     0.00
12/17/2017 05:00:00    23.18    52.47    36.00     0.00     0.00
12/17/2017 05:30:00    23.14    52.42    35.99     0.00     0.00
12/17/2017 06:00:00    22.96    52.13    35.92     0.00     0.00
12/17/2017 06:30:00    22.94    52.12    35.92     0.00     0.00
12/17/2017 07:00:00    22.96    52.15    35.93     0.00     0.00
12/17/2017 07:30:00    22.96    52.17    35.95     0.00     0.00
12/17/2017 08:00:00    22.97    52.20    35.96     0.00     0.00
12/17/2017 08:30:00    22.95    52.17    35.96     0.00     0.00
12/17/2017 09:00:00    22.93    52.15    35.96     0.00     0.00
12/17/2017 09:30:00    22.95    52.15    35.95     0.00     0.00
12/17/2017 10:00:00    22.91    52.02    35.87     0.00     0.00
12/17/2017 10:30:00    22.91    52.03    35.88     0.00     0.00
12/17/2017 11:00:00    22.93    52.10    35.92     0.00     0.00
12/17/2017 11:30:00    22.93    52.12    35.93     0.00     0.00
12/17/2017 12:00:00    22.94    52.16    35.96     0.00     0.00
12/17/2017 12:30:00    22.94    52.17    35.96     0.00     0.00
12/17/2017 13:00:00    22.94    52.17    35.96     0.00     0.00